Metar GG30 METAR message from awiacja.imgw.pl Metar G30 EPLB METAR EPLB 201530Z 30004KT 9999 FEW033 04/02 Q1021 =